sensor_id;sensor_type;location;lat;lon;timestamp;P1;durP1;ratioP1;P2;durP2;ratioP2
9304;SDS011;4690;52.422;13.486;2023-07-13T00:04:42;4.80;;;3.10;;
9304;SDS011;4690;52.422;13.486;2023-07-13T00:07:08;3.65;;;3.22;;
9304;SDS011;4690;52.422;13.486;2023-07-13T00:09:34;3.90;;;3.00;;
9304;SDS011;4690;52.422;13.486;2023-07-13T00:12:00;5.05;;;3.28;;
9304;SDS011;4690;52.422;13.486;2023-07-13T00:14:28;4.93;;;3.33;;
9304;SDS011;4690;52.422;13.486;2023-07-13T00:16:54;4.68;;;3.30;;
9304;SDS011;4690;52.422;13.486;2023-07-13T00:19:21;5.50;;;3.58;;
9304;SDS011;4690;52.422;13.486;2023-07-13T00:21:47;3.10;;;2.88;;
9304;SDS011;4690;52.422;13.486;2023-07-13T00:24:14;4.60;;;3.40;;
9304;SDS011;4690;52.422;13.486;2023-07-13T00:26:48;4.07;;;3.20;;
9304;SDS011;4690;52.422;13.486;2023-07-13T00:29:14;5.57;;;3.50;;
9304;SDS011;4690;52.422;13.486;2023-07-13T00:31:41;3.22;;;2.80;;
9304;SDS011;4690;52.422;13.486;2023-07-13T00:34:07;4.75;;;3.30;;
9304;SDS011;4690;52.422;13.486;2023-07-13T00:36:33;4.20;;;3.58;;
9304;SDS011;4690;52.422;13.486;2023-07-13T00:38:59;4.15;;;3.22;;
9304;SDS011;4690;52.422;13.486;2023-07-13T00:41:25;4.53;;;3.42;;
9304;SDS011;4690;52.422;13.486;2023-07-13T00:43:51;4.45;;;3.05;;
9304;SDS011;4690;52.422;13.486;2023-07-13T00:46:19;3.65;;;3.05;;
9304;SDS011;4690;52.422;13.486;2023-07-13T00:48:51;4.47;;;3.13;;
9304;SDS011;4690;52.422;13.486;2023-07-13T00:51:24;5.63;;;3.50;;
9304;SDS011;4690;52.422;13.486;2023-07-13T00:53:57;5.45;;;3.45;;
9304;SDS011;4690;52.422;13.486;2023-07-13T00:56:28;6.00;;;3.20;;
9304;SDS011;4690;52.422;13.486;2023-07-13T00:58:55;3.45;;;2.78;;
9304;SDS011;4690;52.422;13.486;2023-07-13T01:01:22;4.15;;;2.80;;
9304;SDS011;4690;52.422;13.486;2023-07-13T01:03:48;4.05;;;3.20;;
9304;SDS011;4690;52.422;13.486;2023-07-13T01:06:15;4.10;;;3.17;;
9304;SDS011;4690;52.422;13.486;2023-07-13T01:08:42;4.10;;;3.10;;
9304;SDS011;4690;52.422;13.486;2023-07-13T01:11:08;4.07;;;3.00;;
9304;SDS011;4690;52.422;13.486;2023-07-13T01:13:34;4.18;;;3.20;;
9304;SDS011;4690;52.422;13.486;2023-07-13T01:16:01;3.97;;;3.47;;
9304;SDS011;4690;52.422;13.486;2023-07-13T01:18:39;5.47;;;3.38;;
9304;SDS011;4690;52.422;13.486;2023-07-13T01:21:04;5.30;;;3.25;;
9304;SDS011;4690;52.422;13.486;2023-07-13T01:23:31;3.83;;;3.17;;
9304;SDS011;4690;52.422;13.486;2023-07-13T01:25:58;3.92;;;3.40;;
9304;SDS011;4690;52.422;13.486;2023-07-13T01:28:25;4.35;;;3.42;;
9304;SDS011;4690;52.422;13.486;2023-07-13T01:30:53;4.25;;;3.33;;
9304;SDS011;4690;52.422;13.486;2023-07-13T01:33:22;4.88;;;3.70;;
9304;SDS011;4690;52.422;13.486;2023-07-13T01:35:49;3.50;;;3.20;;
9304;SDS011;4690;52.422;13.486;2023-07-13T01:38:16;5.38;;;3.50;;
9304;SDS011;4690;52.422;13.486;2023-07-13T01:40:45;5.13;;;3.63;;
9304;SDS011;4690;52.422;13.486;2023-07-13T01:43:11;4.53;;;3.58;;
9304;SDS011;4690;52.422;13.486;2023-07-13T01:45:37;5.45;;;3.55;;
9304;SDS011;4690;52.422;13.486;2023-07-13T01:48:03;4.53;;;3.47;;
9304;SDS011;4690;52.422;13.486;2023-07-13T01:50:31;5.22;;;3.63;;
9304;SDS011;4690;52.422;13.486;2023-07-13T01:52:58;6.03;;;3.63;;
9304;SDS011;4690;52.422;13.486;2023-07-13T01:55:23;6.10;;;3.80;;
9304;SDS011;4690;52.422;13.486;2023-07-13T01:57:49;4.28;;;3.65;;
9304;SDS011;4690;52.422;13.486;2023-07-13T02:00:15;4.78;;;3.50;;
9304;SDS011;4690;52.422;13.486;2023-07-13T02:02:42;5.82;;;3.60;;
9304;SDS011;4690;52.422;13.486;2023-07-13T02:05:08;6.40;;;3.55;;
9304;SDS011;4690;52.422;13.486;2023-07-13T02:07:34;5.05;;;3.42;;
9304;SDS011;4690;52.422;13.486;2023-07-13T02:09:59;3.80;;;3.50;;
9304;SDS011;4690;52.422;13.486;2023-07-13T02:12:25;4.35;;;3.55;;
9304;SDS011;4690;52.422;13.486;2023-07-13T02:14:51;3.83;;;3.42;;
9304;SDS011;4690;52.422;13.486;2023-07-13T02:17:17;5.35;;;3.30;;
9304;SDS011;4690;52.422;13.486;2023-07-13T02:19:42;4.38;;;3.40;;
9304;SDS011;4690;52.422;13.486;2023-07-13T02:22:08;4.07;;;3.55;;
9304;SDS011;4690;52.422;13.486;2023-07-13T02:24:34;5.03;;;3.50;;
9304;SDS011;4690;52.422;13.486;2023-07-13T02:27:00;6.05;;;3.72;;
9304;SDS011;4690;52.422;13.486;2023-07-13T02:29:25;3.72;;;3.20;;
9304;SDS011;4690;52.422;13.486;2023-07-13T02:31:51;9.52;;;3.67;;
9304;SDS011;4690;52.422;13.486;2023-07-13T02:34:17;4.70;;;3.60;;
9304;SDS011;4690;52.422;13.486;2023-07-13T02:36:43;4.28;;;3.67;;
9304;SDS011;4690;52.422;13.486;2023-07-13T02:39:08;4.63;;;3.67;;
9304;SDS011;4690;52.422;13.486;2023-07-13T02:41:38;4.20;;;3.58;;
9304;SDS011;4690;52.422;13.486;2023-07-13T02:44:04;5.15;;;3.47;;
9304;SDS011;4690;52.422;13.486;2023-07-13T02:46:30;5.22;;;3.53;;
9304;SDS011;4690;52.422;13.486;2023-07-13T02:48:58;4.93;;;3.45;;
9304;SDS011;4690;52.422;13.486;2023-07-13T02:51:23;6.40;;;3.80;;
9304;SDS011;4690;52.422;13.486;2023-07-13T02:53:50;4.20;;;3.70;;
9304;SDS011;4690;52.422;13.486;2023-07-13T02:56:15;3.85;;;3.50;;
9304;SDS011;4690;52.422;13.486;2023-07-13T02:58:41;4.55;;;3.55;;
9304;SDS011;4690;52.422;13.486;2023-07-13T03:01:08;3.97;;;3.63;;
9304;SDS011;4690;52.422;13.486;2023-07-13T03:03:36;5.63;;;3.63;;
9304;SDS011;4690;52.422;13.486;2023-07-13T03:06:03;5.47;;;3.70;;
9304;SDS011;4690;52.422;13.486;2023-07-13T03:08:32;5.20;;;3.53;;
9304;SDS011;4690;52.422;13.486;2023-07-13T03:11:00;5.00;;;3.70;;
9304;SDS011;4690;52.422;13.486;2023-07-13T03:13:37;4.53;;;3.55;;
9304;SDS011;4690;52.422;13.486;2023-07-13T03:16:06;5.65;;;3.88;;
9304;SDS011;4690;52.422;13.486;2023-07-13T03:18:35;3.70;;;3.30;;
9304;SDS011;4690;52.422;13.486;2023-07-13T03:21:01;7.55;;;3.70;;
9304;SDS011;4690;52.422;13.486;2023-07-13T03:23:27;8.25;;;3.70;;
9304;SDS011;4690;52.422;13.486;2023-07-13T03:26:09;5.90;;;3.40;;
9304;SDS011;4690;52.422;13.486;2023-07-13T03:28:39;5.88;;;3.60;;
9304;SDS011;4690;52.422;13.486;2023-07-13T03:31:07;3.85;;;3.15;;
9304;SDS011;4690;52.422;13.486;2023-07-13T03:33:42;4.13;;;3.22;;
9304;SDS011;4690;52.422;13.486;2023-07-13T03:36:14;5.97;;;3.17;;
9304;SDS011;4690;52.422;13.486;2023-07-13T03:38:45;4.63;;;3.20;;
9304;SDS011;4690;52.422;13.486;2023-07-13T03:41:13;6.72;;;3.45;;
9304;SDS011;4690;52.422;13.486;2023-07-13T03:43:40;6.13;;;3.30;;
9304;SDS011;4690;52.422;13.486;2023-07-13T03:46:06;4.53;;;3.38;;
9304;SDS011;4690;52.422;13.486;2023-07-13T03:48:31;4.35;;;3.22;;
9304;SDS011;4690;52.422;13.486;2023-07-13T03:50:57;4.75;;;3.40;;
9304;SDS011;4690;52.422;13.486;2023-07-13T03:53:23;3.60;;;3.20;;
9304;SDS011;4690;52.422;13.486;2023-07-13T03:55:49;4.25;;;3.45;;
9304;SDS011;4690;52.422;13.486;2023-07-13T04:01:01;4.97;;;3.38;;
9304;SDS011;4690;52.422;13.486;2023-07-13T04:03:30;4.88;;;3.10;;
9304;SDS011;4690;52.422;13.486;2023-07-13T04:05:58;3.58;;;3.10;;
9304;SDS011;4690;52.422;13.486;2023-07-13T04:08:29;4.38;;;3.92;;
9304;SDS011;4690;52.422;13.486;2023-07-13T04:10:59;4.82;;;3.65;;
9304;SDS011;4690;52.422;13.486;2023-07-13T04:13:26;6.03;;;4.30;;
9304;SDS011;4690;52.422;13.486;2023-07-13T04:15:52;3.65;;;3.35;;
9304;SDS011;4690;52.422;13.486;2023-07-13T04:18:19;4.50;;;3.45;;
9304;SDS011;4690;52.422;13.486;2023-07-13T04:20:46;4.35;;;3.50;;
9304;SDS011;4690;52.422;13.486;2023-07-13T04:23:14;4.38;;;3.08;;
9304;SDS011;4690;52.422;13.486;2023-07-13T04:25:47;4.60;;;3.20;;
9304;SDS011;4690;52.422;13.486;2023-07-13T04:28:17;5.68;;;3.88;;
9304;SDS011;4690;52.422;13.486;2023-07-13T04:30:49;3.97;;;3.40;;
9304;SDS011;4690;52.422;13.486;2023-07-13T04:33:15;4.32;;;3.50;;
9304;SDS011;4690;52.422;13.486;2023-07-13T04:35:42;4.20;;;3.50;;
9304;SDS011;4690;52.422;13.486;2023-07-13T04:38:11;5.47;;;3.72;;
9304;SDS011;4690;52.422;13.486;2023-07-13T04:40:37;6.50;;;3.60;;
9304;SDS011;4690;52.422;13.486;2023-07-13T04:43:03;5.22;;;3.13;;
9304;SDS011;4690;52.422;13.486;2023-07-13T04:45:29;5.10;;;3.50;;
9304;SDS011;4690;52.422;13.486;2023-07-13T04:47:56;6.53;;;3.60;;
9304;SDS011;4690;52.422;13.486;2023-07-13T04:50:21;4.88;;;3.42;;
9304;SDS011;4690;52.422;13.486;2023-07-13T04:52:48;6.40;;;3.70;;
9304;SDS011;4690;52.422;13.486;2023-07-13T04:55:15;4.40;;;3.30;;
9304;SDS011;4690;52.422;13.486;2023-07-13T04:57:43;3.50;;;3.15;;
9304;SDS011;4690;52.422;13.486;2023-07-13T05:00:09;5.43;;;3.17;;
9304;SDS011;4690;52.422;13.486;2023-07-13T05:02:37;5.00;;;3.20;;
9304;SDS011;4690;52.422;13.486;2023-07-13T05:05:04;5.18;;;3.08;;
9304;SDS011;4690;52.422;13.486;2023-07-13T05:07:31;4.18;;;3.28;;
9304;SDS011;4690;52.422;13.486;2023-07-13T05:09:58;6.03;;;3.42;;
9304;SDS011;4690;52.422;13.486;2023-07-13T05:12:25;5.28;;;3.70;;
9304;SDS011;4690;52.422;13.486;2023-07-13T05:14:51;5.07;;;3.40;;
9304;SDS011;4690;52.422;13.486;2023-07-13T05:17:17;5.00;;;3.80;;
9304;SDS011;4690;52.422;13.486;2023-07-13T05:19:43;5.72;;;3.35;;
9304;SDS011;4690;52.422;13.486;2023-07-13T05:22:09;12.30;;;5.15;;
9304;SDS011;4690;52.422;13.486;2023-07-13T05:24:35;13.25;;;6.05;;
9304;SDS011;4690;52.422;13.486;2023-07-13T05:27:01;15.35;;;6.57;;
9304;SDS011;4690;52.422;13.486;2023-07-13T05:29:27;12.98;;;6.00;;
9304;SDS011;4690;52.422;13.486;2023-07-13T05:31:52;8.73;;;4.60;;
9304;SDS011;4690;52.422;13.486;2023-07-13T05:34:20;4.25;;;3.40;;
9304;SDS011;4690;52.422;13.486;2023-07-13T05:36:45;5.10;;;3.22;;
9304;SDS011;4690;52.422;13.486;2023-07-13T05:39:11;5.50;;;3.25;;
9304;SDS011;4690;52.422;13.486;2023-07-13T05:41:37;3.05;;;2.83;;
9304;SDS011;4690;52.422;13.486;2023-07-13T05:44:03;4.78;;;3.40;;
9304;SDS011;4690;52.422;13.486;2023-07-13T05:46:29;6.00;;;2.88;;
9304;SDS011;4690;52.422;13.486;2023-07-13T05:48:55;4.65;;;2.83;;
9304;SDS011;4690;52.422;13.486;2023-07-13T05:51:21;4.60;;;2.67;;
9304;SDS011;4690;52.422;13.486;2023-07-13T05:53:47;3.05;;;2.45;;
9304;SDS011;4690;52.422;13.486;2023-07-13T05:56:13;3.70;;;2.55;;
9304;SDS011;4690;52.422;13.486;2023-07-13T05:58:38;3.55;;;2.38;;
9304;SDS011;4690;52.422;13.486;2023-07-13T06:01:05;4.63;;;2.67;;
9304;SDS011;4690;52.422;13.486;2023-07-13T06:03:36;3.08;;;2.38;;
9304;SDS011;4690;52.422;13.486;2023-07-13T06:06:06;6.55;;;2.50;;
9304;SDS011;4690;52.422;13.486;2023-07-13T06:08:35;4.78;;;2.42;;
9304;SDS011;4690;52.422;13.486;2023-07-13T06:11:02;4.03;;;2.78;;
9304;SDS011;4690;52.422;13.486;2023-07-13T06:13:34;5.60;;;2.90;;
9304;SDS011;4690;52.422;13.486;2023-07-13T06:16:00;4.30;;;2.70;;
9304;SDS011;4690;52.422;13.486;2023-07-13T06:18:29;4.20;;;2.40;;
9304;SDS011;4690;52.422;13.486;2023-07-13T06:20:56;3.42;;;2.33;;
9304;SDS011;4690;52.422;13.486;2023-07-13T06:23:23;3.47;;;2.30;;
9304;SDS011;4690;52.422;13.486;2023-07-13T06:25:49;5.00;;;2.78;;
9304;SDS011;4690;52.422;13.486;2023-07-13T06:28:15;3.42;;;2.40;;
9304;SDS011;4690;52.422;13.486;2023-07-13T06:30:41;3.88;;;2.40;;
9304;SDS011;4690;52.422;13.486;2023-07-13T06:33:06;3.42;;;2.45;;
9304;SDS011;4690;52.422;13.486;2023-07-13T06:35:32;3.28;;;2.28;;
9304;SDS011;4690;52.422;13.486;2023-07-13T06:37:58;2.70;;;2.30;;
9304;SDS011;4690;52.422;13.486;2023-07-13T06:40:24;4.20;;;2.40;;
9304;SDS011;4690;52.422;13.486;2023-07-13T06:42:50;3.78;;;2.50;;
9304;SDS011;4690;52.422;13.486;2023-07-13T06:45:16;4.88;;;2.50;;
9304;SDS011;4690;52.422;13.486;2023-07-13T06:47:42;3.00;;;2.30;;
9304;SDS011;4690;52.422;13.486;2023-07-13T06:50:08;2.95;;;2.40;;
9304;SDS011;4690;52.422;13.486;2023-07-13T06:52:34;3.30;;;2.35;;
9304;SDS011;4690;52.422;13.486;2023-07-13T06:55:00;2.97;;;2.22;;
9304;SDS011;4690;52.422;13.486;2023-07-13T06:57:26;5.15;;;2.60;;
9304;SDS011;4690;52.422;13.486;2023-07-13T06:59:52;3.38;;;2.60;;
9304;SDS011;4690;52.422;13.486;2023-07-13T07:02:18;5.43;;;2.40;;
9304;SDS011;4690;52.422;13.486;2023-07-13T07:04:44;4.63;;;2.45;;
9304;SDS011;4690;52.422;13.486;2023-07-13T07:07:09;7.82;;;2.60;;
9304;SDS011;4690;52.422;13.486;2023-07-13T07:09:35;3.80;;;2.63;;
9304;SDS011;4690;52.422;13.486;2023-07-13T07:12:02;4.18;;;2.20;;
9304;SDS011;4690;52.422;13.486;2023-07-13T07:14:28;2.83;;;2.30;;
9304;SDS011;4690;52.422;13.486;2023-07-13T07:16:55;4.80;;;2.42;;
9304;SDS011;4690;52.422;13.486;2023-07-13T07:19:21;3.28;;;2.20;;
9304;SDS011;4690;52.422;13.486;2023-07-13T07:21:46;5.15;;;2.30;;
9304;SDS011;4690;52.422;13.486;2023-07-13T07:24:12;3.03;;;2.03;;
9304;SDS011;4690;52.422;13.486;2023-07-13T07:26:38;4.35;;;2.20;;
9304;SDS011;4690;52.422;13.486;2023-07-13T07:29:04;2.88;;;2.03;;
9304;SDS011;4690;52.422;13.486;2023-07-13T07:31:29;4.32;;;1.95;;
9304;SDS011;4690;52.422;13.486;2023-07-13T07:33:55;2.72;;;2.03;;
9304;SDS011;4690;52.422;13.486;2023-07-13T07:36:21;3.20;;;2.10;;
9304;SDS011;4690;52.422;13.486;2023-07-13T07:38:46;4.13;;;2.53;;
9304;SDS011;4690;52.422;13.486;2023-07-13T07:41:12;6.03;;;2.33;;
9304;SDS011;4690;52.422;13.486;2023-07-13T07:43:38;3.15;;;2.10;;
9304;SDS011;4690;52.422;13.486;2023-07-13T07:46:04;5.65;;;2.58;;
9304;SDS011;4690;52.422;13.486;2023-07-13T07:48:31;2.70;;;2.20;;
9304;SDS011;4690;52.422;13.486;2023-07-13T07:50:57;3.22;;;2.30;;
9304;SDS011;4690;52.422;13.486;2023-07-13T07:53:23;2.67;;;2.00;;
9304;SDS011;4690;52.422;13.486;2023-07-13T07:55:49;5.55;;;2.28;;
9304;SDS011;4690;52.422;13.486;2023-07-13T07:58:15;4.03;;;2.30;;
9304;SDS011;4690;52.422;13.486;2023-07-13T08:00:40;3.38;;;2.08;;
9304;SDS011;4690;52.422;13.486;2023-07-13T08:03:06;4.43;;;2.13;;
9304;SDS011;4690;52.422;13.486;2023-07-13T08:05:34;3.38;;;2.28;;
9304;SDS011;4690;52.422;13.486;2023-07-13T08:08:02;4.05;;;2.17;;
9304;SDS011;4690;52.422;13.486;2023-07-13T08:10:28;4.82;;;2.33;;
9304;SDS011;4690;52.422;13.486;2023-07-13T08:12:54;3.55;;;2.15;;
9304;SDS011;4690;52.422;13.486;2023-07-13T08:15:20;4.53;;;2.28;;
9304;SDS011;4690;52.422;13.486;2023-07-13T08:17:49;5.10;;;2.17;;
9304;SDS011;4690;52.422;13.486;2023-07-13T08:20:14;2.92;;;1.90;;
9304;SDS011;4690;52.422;13.486;2023-07-13T08:22:41;6.13;;;2.30;;
9304;SDS011;4690;52.422;13.486;2023-07-13T08:25:07;3.33;;;2.03;;
9304;SDS011;4690;52.422;13.486;2023-07-13T08:27:33;4.85;;;2.10;;
9304;SDS011;4690;52.422;13.486;2023-07-13T08:29:59;2.42;;;1.98;;
9304;SDS011;4690;52.422;13.486;2023-07-13T08:32:25;3.83;;;2.33;;
9304;SDS011;4690;52.422;13.486;2023-07-13T08:34:51;4.25;;;2.08;;
9304;SDS011;4690;52.422;13.486;2023-07-13T08:37:17;5.57;;;2.08;;
9304;SDS011;4690;52.422;13.486;2023-07-13T08:39:44;6.38;;;2.40;;
9304;SDS011;4690;52.422;13.486;2023-07-13T08:42:16;3.00;;;2.20;;
9304;SDS011;4690;52.422;13.486;2023-07-13T08:47:40;4.00;;;2.20;;
9304;SDS011;4690;52.422;13.486;2023-07-13T08:50:17;2.80;;;2.03;;
9304;SDS011;4690;52.422;13.486;2023-07-13T08:52:49;6.53;;;2.63;;
9304;SDS011;4690;52.422;13.486;2023-07-13T08:55:20;4.28;;;2.20;;
9304;SDS011;4690;52.422;13.486;2023-07-13T08:57:56;3.92;;;2.10;;
9304;SDS011;4690;52.422;13.486;2023-07-13T09:00:56;3.58;;;2.40;;
9304;SDS011;4690;52.422;13.486;2023-07-13T09:09:28;2.72;;;2.00;;
9304;SDS011;4690;52.422;13.486;2023-07-13T09:15:30;2.97;;;2.10;;
9304;SDS011;4690;52.422;13.486;2023-07-13T09:21:34;5.07;;;2.30;;
9304;SDS011;4690;52.422;13.486;2023-07-13T09:27:41;3.20;;;2.15;;
9304;SDS011;4690;52.422;13.486;2023-07-13T09:32:40;3.78;;;2.00;;
9304;SDS011;4690;52.422;13.486;2023-07-13T09:35:16;5.00;;;2.13;;
9304;SDS011;4690;52.422;13.486;2023-07-13T09:37:47;5.13;;;2.45;;
9304;SDS011;4690;52.422;13.486;2023-07-13T09:43:21;4.50;;;2.45;;
9304;SDS011;4690;52.422;13.486;2023-07-13T09:45:47;3.20;;;2.80;;
9304;SDS011;4690;52.422;13.486;2023-07-13T09:48:14;3.13;;;2.40;;
9304;SDS011;4690;52.422;13.486;2023-07-13T09:50:42;4.43;;;2.58;;
9304;SDS011;4690;52.422;13.486;2023-07-13T09:53:16;2.55;;;2.30;;
9304;SDS011;4690;52.422;13.486;2023-07-13T09:55:45;3.45;;;2.72;;
9304;SDS011;4690;52.422;13.486;2023-07-13T09:58:23;8.13;;;2.95;;
9304;SDS011;4690;52.422;13.486;2023-07-13T10:01:12;4.13;;;2.72;;
9304;SDS011;4690;52.422;13.486;2023-07-13T10:03:39;3.88;;;2.75;;
9304;SDS011;4690;52.422;13.486;2023-07-13T10:06:20;4.35;;;2.78;;
9304;SDS011;4690;52.422;13.486;2023-07-13T10:08:47;3.53;;;2.35;;
9304;SDS011;4690;52.422;13.486;2023-07-13T10:11:20;4.50;;;3.05;;
9304;SDS011;4690;52.422;13.486;2023-07-13T10:16:23;5.63;;;2.63;;
9304;SDS011;4690;52.422;13.486;2023-07-13T10:18:59;4.57;;;2.60;;
9304;SDS011;4690;52.422;13.486;2023-07-13T10:21:41;7.18;;;3.22;;
9304;SDS011;4690;52.422;13.486;2023-07-13T10:24:25;4.07;;;2.80;;
9304;SDS011;4690;52.422;13.486;2023-07-13T10:27:13;6.38;;;2.80;;
9304;SDS011;4690;52.422;13.486;2023-07-13T10:29:52;3.53;;;2.97;;
9304;SDS011;4690;52.422;13.486;2023-07-13T10:32:26;5.45;;;3.42;;
9304;SDS011;4690;52.422;13.486;2023-07-13T10:34:52;8.70;;;3.10;;
9304;SDS011;4690;52.422;13.486;2023-07-13T10:37:21;4.10;;;3.17;;
9304;SDS011;4690;52.422;13.486;2023-07-13T10:39:54;5.25;;;3.13;;
9304;SDS011;4690;52.422;13.486;2023-07-13T10:42:34;3.50;;;2.80;;
9304;SDS011;4690;52.422;13.486;2023-07-13T10:45:24;4.63;;;2.85;;
9304;SDS011;4690;52.422;13.486;2023-07-13T10:47:54;4.85;;;2.92;;
9304;SDS011;4690;52.422;13.486;2023-07-13T10:50:22;4.85;;;3.10;;
9304;SDS011;4690;52.422;13.486;2023-07-13T10:52:54;5.45;;;2.80;;
9304;SDS011;4690;52.422;13.486;2023-07-13T10:55:35;6.45;;;3.00;;
9304;SDS011;4690;52.422;13.486;2023-07-13T10:58:34;4.97;;;3.30;;
9304;SDS011;4690;52.422;13.486;2023-07-13T11:03:35;6.15;;;3.13;;
9304;SDS011;4690;52.422;13.486;2023-07-13T11:08:53;5.80;;;2.95;;
9304;SDS011;4690;52.422;13.486;2023-07-13T11:11:45;7.60;;;3.15;;
9304;SDS011;4690;52.422;13.486;2023-07-13T11:23:18;5.65;;;3.08;;
9304;SDS011;4690;52.422;13.486;2023-07-13T11:25:52;4.05;;;3.00;;
9304;SDS011;4690;52.422;13.486;2023-07-13T11:28:22;4.95;;;3.00;;
9304;SDS011;4690;52.422;13.486;2023-07-13T11:33:21;7.30;;;3.35;;
9304;SDS011;4690;52.422;13.486;2023-07-13T11:36:14;6.30;;;3.60;;
9304;SDS011;4690;52.422;13.486;2023-07-13T11:38:51;5.65;;;2.85;;
9304;SDS011;4690;52.422;13.486;2023-07-13T11:41:56;4.15;;;2.60;;
9304;SDS011;4690;52.422;13.486;2023-07-13T11:44:28;3.22;;;2.20;;
9304;SDS011;4690;52.422;13.486;2023-07-13T11:47:00;2.15;;;2.03;;
9304;SDS011;4690;52.422;13.486;2023-07-13T11:49:48;4.22;;;2.28;;
9304;SDS011;4690;52.422;13.486;2023-07-13T11:52:18;4.47;;;2.50;;
9304;SDS011;4690;52.422;13.486;2023-07-13T11:54:54;7.80;;;2.60;;
9304;SDS011;4690;52.422;13.486;2023-07-13T11:57:44;3.97;;;2.33;;
9304;SDS011;4690;52.422;13.486;2023-07-13T12:00:26;5.13;;;2.85;;
9304;SDS011;4690;52.422;13.486;2023-07-13T12:02:58;3.20;;;2.50;;
9304;SDS011;4690;52.422;13.486;2023-07-13T12:05:27;3.22;;;2.80;;
9304;SDS011;4690;52.422;13.486;2023-07-13T12:07:55;3.28;;;2.63;;
9304;SDS011;4690;52.422;13.486;2023-07-13T12:10:26;4.95;;;2.92;;
9304;SDS011;4690;52.422;13.486;2023-07-13T12:12:58;4.45;;;2.78;;
9304;SDS011;4690;52.422;13.486;2023-07-13T12:15:40;4.97;;;3.00;;
9304;SDS011;4690;52.422;13.486;2023-07-13T12:18:20;7.18;;;2.60;;
9304;SDS011;4690;52.422;13.486;2023-07-13T12:20:55;4.45;;;2.85;;
9304;SDS011;4690;52.422;13.486;2023-07-13T12:23:31;4.75;;;2.78;;
9304;SDS011;4690;52.422;13.486;2023-07-13T12:26:04;7.50;;;3.00;;
9304;SDS011;4690;52.422;13.486;2023-07-13T12:28:51;5.00;;;2.75;;
9304;SDS011;4690;52.422;13.486;2023-07-13T12:34:12;5.65;;;2.45;;
9304;SDS011;4690;52.422;13.486;2023-07-13T12:36:56;2.78;;;2.55;;
9304;SDS011;4690;52.422;13.486;2023-07-13T12:39:28;3.85;;;2.90;;
9304;SDS011;4690;52.422;13.486;2023-07-13T12:42:16;3.08;;;2.70;;
9304;SDS011;4690;52.422;13.486;2023-07-13T12:44:59;4.05;;;2.55;;
9304;SDS011;4690;52.422;13.486;2023-07-13T12:47:40;5.90;;;2.40;;
9304;SDS011;4690;52.422;13.486;2023-07-13T12:50:12;5.30;;;2.70;;
9304;SDS011;4690;52.422;13.486;2023-07-13T12:52:50;5.10;;;2.53;;
9304;SDS011;4690;52.422;13.486;2023-07-13T12:55:24;5.00;;;2.42;;
9304;SDS011;4690;52.422;13.486;2023-07-13T13:05:45;4.35;;;2.40;;
9304;SDS011;4690;52.422;13.486;2023-07-13T13:08:11;3.97;;;2.45;;
9304;SDS011;4690;52.422;13.486;2023-07-13T13:10:38;5.97;;;2.65;;
9304;SDS011;4690;52.422;13.486;2023-07-13T13:13:04;4.15;;;2.53;;
9304;SDS011;4690;52.422;13.486;2023-07-13T13:15:29;3.53;;;2.80;;
9304;SDS011;4690;52.422;13.486;2023-07-13T13:17:56;4.30;;;2.72;;
9304;SDS011;4690;52.422;13.486;2023-07-13T13:20:24;5.03;;;2.40;;
9304;SDS011;4690;52.422;13.486;2023-07-13T13:22:53;3.25;;;2.47;;
9304;SDS011;4690;52.422;13.486;2023-07-13T13:25:20;3.63;;;2.38;;
9304;SDS011;4690;52.422;13.486;2023-07-13T13:27:47;5.30;;;2.22;;
9304;SDS011;4690;52.422;13.486;2023-07-13T13:30:15;5.55;;;2.22;;
9304;SDS011;4690;52.422;13.486;2023-07-13T13:32:44;4.18;;;2.63;;
9304;SDS011;4690;52.422;13.486;2023-07-13T13:35:14;6.25;;;2.30;;
9304;SDS011;4690;52.422;13.486;2023-07-13T13:37:42;5.65;;;2.20;;
9304;SDS011;4690;52.422;13.486;2023-07-13T13:42:44;3.58;;;2.10;;
9304;SDS011;4690;52.422;13.486;2023-07-13T13:45:10;3.55;;;2.30;;
9304;SDS011;4690;52.422;13.486;2023-07-13T13:47:38;5.03;;;2.30;;
9304;SDS011;4690;52.422;13.486;2023-07-13T13:50:12;3.53;;;2.28;;
9304;SDS011;4690;52.422;13.486;2023-07-13T13:52:42;5.28;;;2.40;;
9304;SDS011;4690;52.422;13.486;2023-07-13T13:55:12;4.88;;;2.30;;
9304;SDS011;4690;52.422;13.486;2023-07-13T13:57:40;3.10;;;2.10;;
9304;SDS011;4690;52.422;13.486;2023-07-13T14:00:08;4.60;;;2.30;;
9304;SDS011;4690;52.422;13.486;2023-07-13T14:02:39;2.25;;;1.88;;
9304;SDS011;4690;52.422;13.486;2023-07-13T14:05:12;5.20;;;2.13;;
9304;SDS011;4690;52.422;13.486;2023-07-13T14:07:41;3.80;;;2.35;;
9304;SDS011;4690;52.422;13.486;2023-07-13T14:10:17;4.13;;;2.05;;
9304;SDS011;4690;52.422;13.486;2023-07-13T14:12:44;10.95;;;2.33;;
9304;SDS011;4690;52.422;13.486;2023-07-13T14:15:22;5.32;;;2.28;;
9304;SDS011;4690;52.422;13.486;2023-07-13T14:17:53;3.70;;;2.28;;
9304;SDS011;4690;52.422;13.486;2023-07-13T14:20:20;3.65;;;2.28;;
9304;SDS011;4690;52.422;13.486;2023-07-13T14:22:48;5.78;;;2.15;;
9304;SDS011;4690;52.422;13.486;2023-07-13T14:25:16;2.85;;;2.20;;
9304;SDS011;4690;52.422;13.486;2023-07-13T14:27:44;4.07;;;2.08;;
9304;SDS011;4690;52.422;13.486;2023-07-13T14:30:18;2.70;;;2.13;;
9304;SDS011;4690;52.422;13.486;2023-07-13T14:32:46;4.28;;;2.40;;
9304;SDS011;4690;52.422;13.486;2023-07-13T14:35:14;6.50;;;2.20;;
9304;SDS011;4690;52.422;13.486;2023-07-13T14:37:43;3.65;;;2.10;;
9304;SDS011;4690;52.422;13.486;2023-07-13T14:40:12;2.30;;;1.98;;
9304;SDS011;4690;52.422;13.486;2023-07-13T14:42:54;2.30;;;2.05;;
9304;SDS011;4690;52.422;13.486;2023-07-13T14:45:20;2.85;;;1.85;;
9304;SDS011;4690;52.422;13.486;2023-07-13T14:47:46;5.88;;;2.20;;
9304;SDS011;4690;52.422;13.486;2023-07-13T14:52:39;2.97;;;2.00;;
9304;SDS011;4690;52.422;13.486;2023-07-13T14:55:09;5.00;;;2.10;;
9304;SDS011;4690;52.422;13.486;2023-07-13T14:57:37;4.00;;;2.05;;
9304;SDS011;4690;52.422;13.486;2023-07-13T15:00:04;3.78;;;2.40;;
9304;SDS011;4690;52.422;13.486;2023-07-13T15:02:50;2.83;;;2.00;;
9304;SDS011;4690;52.422;13.486;2023-07-13T15:05:21;4.13;;;2.05;;
9304;SDS011;4690;52.422;13.486;2023-07-13T15:07:52;6.28;;;2.10;;
9304;SDS011;4690;52.422;13.486;2023-07-13T15:10:23;4.82;;;2.05;;
9304;SDS011;4690;52.422;13.486;2023-07-13T15:12:58;2.92;;;1.90;;
9304;SDS011;4690;52.422;13.486;2023-07-13T15:15:38;3.00;;;1.92;;
9304;SDS011;4690;52.422;13.486;2023-07-13T15:18:09;3.10;;;2.10;;
9304;SDS011;4690;52.422;13.486;2023-07-13T15:20:39;4.30;;;1.90;;
9304;SDS011;4690;52.422;13.486;2023-07-13T15:23:05;4.43;;;1.70;;
9304;SDS011;4690;52.422;13.486;2023-07-13T15:25:31;2.45;;;1.63;;
9304;SDS011;4690;52.422;13.486;2023-07-13T15:27:59;7.95;;;1.70;;
9304;SDS011;4690;52.422;13.486;2023-07-13T15:30:27;3.55;;;1.95;;
9304;SDS011;4690;52.422;13.486;2023-07-13T15:35:44;2.58;;;1.80;;
9304;SDS011;4690;52.422;13.486;2023-07-13T15:38:15;3.42;;;1.70;;
9304;SDS011;4690;52.422;13.486;2023-07-13T15:40:47;1.92;;;1.60;;
9304;SDS011;4690;52.422;13.486;2023-07-13T15:43:16;4.40;;;1.85;;
9304;SDS011;4690;52.422;13.486;2023-07-13T15:45:43;1.92;;;1.70;;
9304;SDS011;4690;52.422;13.486;2023-07-13T15:48:21;1.77;;;1.67;;
9304;SDS011;4690;52.422;13.486;2023-07-13T15:50:53;3.03;;;1.90;;
9304;SDS011;4690;52.422;13.486;2023-07-13T15:53:25;2.05;;;1.75;;
9304;SDS011;4690;52.422;13.486;2023-07-13T15:55:57;3.33;;;1.92;;
9304;SDS011;4690;52.422;13.486;2023-07-13T15:58:23;4.50;;;1.60;;
9304;SDS011;4690;52.422;13.486;2023-07-13T16:00:50;2.13;;;1.77;;
9304;SDS011;4690;52.422;13.486;2023-07-13T16:03:16;3.78;;;1.80;;
9304;SDS011;4690;52.422;13.486;2023-07-13T16:05:43;4.28;;;1.95;;
9304;SDS011;4690;52.422;13.486;2023-07-13T16:08:19;2.30;;;1.88;;
9304;SDS011;4690;52.422;13.486;2023-07-13T16:10:55;3.33;;;1.90;;
9304;SDS011;4690;52.422;13.486;2023-07-13T16:13:22;2.30;;;1.63;;
9304;SDS011;4690;52.422;13.486;2023-07-13T16:15:49;3.17;;;1.98;;
9304;SDS011;4690;52.422;13.486;2023-07-13T16:18:15;3.30;;;1.98;;
9304;SDS011;4690;52.422;13.486;2023-07-13T16:20:42;4.57;;;2.00;;
9304;SDS011;4690;52.422;13.486;2023-07-13T16:23:10;2.75;;;1.80;;